Du har inga inställningar för hoppväder.nu

Hoppväder.nu

Senast uppdaterat 00:08

UTC-tid

2019-06-25 kl. 22:08


Sol och måne

Solen går upp 2:19 och går ner 24:05 (beräknade cirkatider)
Nästa fullmåne blir om 20 dagar (2019-07-16)

METAR

ESNU (Umeå)
(18 minuter sedan)
ESNU 252150Z 13003KT CAVOK 11/10 Q1022=



ESNO (Örnsköldsvik)
(18 minuter sedan)
ESNO 252150Z AUTO 22004KT 9999 BKN068/// OVC160/// 13/09 Q1021=



ESNS (Skellefteå)
(18 minuter sedan)
ESNS 252150Z AUTO VRB01KT 9999 R10/P1500N R28///// NCD 12/10 Q1021=









TAF

ESNU (Umeå)
(98 minuter sedan)
ESNU 252030Z 2521/2606 18004KT CAVOK=



ESNO (Örnsköldsvik)
(278 minuter sedan)
ESNO 251730Z 2518/2522 19004KT CAVOK=



ESNS (Skellefteå)
(278 minuter sedan)
ESNS 251730Z 2518/2522 14006KT CAVOK=





Kodnycklar till TAF och METAR






LHP

(Umeå är område A1c i Norra delen)

Prognos är inte uppdaterad




Spotting

Hur fungerar spotthjälpen och Vindkartan?

Markvind är ca 0 m/s.



Vindkartan

Senast uppdaterad 00:08




All data kommer från LFV.se